Time;durP1;ratioP1;P1;durP2;ratioP2;P2;SDS_P1;SDS_P2;PMS_P1;PMS_P2;Temp;Humidity;BMP_temperature;BMP_pressure;BME280_temperature;BME280_humidity;BME280_pressure;Samples;Min_cycle;Max_cycle;Signal;HPM_P1;HPM_P2
2021/01/11 00:01:52;;;;;;;14.30;7.97;;;11.10;70.10;;;;;;5114217;28;20520;-63
2021/01/11 00:04:19;;;;;;;10.00;7.40;;;11.10;70.10;;;;;;5097347;28;20436;-61
2021/01/11 00:06:46;;;;;;;11.40;7.70;;;11.10;70.20;;;;;;5093755;28;20465;-57
2021/01/11 00:09:13;;;;;;;9.30;6.33;;;11.10;69.80;;;;;;5093726;28;20484;-61
2021/01/11 00:11:40;;;;;;;17.93;6.67;;;11.10;69.80;;;;;;5093572;28;20572;-61
2021/01/11 00:14:06;;;;;;;80.97;6.67;;;11.40;76.20;;;;;;5094485;28;20448;-50
2021/01/11 00:16:33;;;;;;;12.83;5.60;;;12.00;77.30;;;;;;5093252;28;20469;-58
2021/01/11 00:19:02;;;;;;;11.23;5.33;;;12.00;74.90;;;;;;5094254;28;20437;-50
2021/01/11 00:21:29;;;;;;;15.57;6.00;;;11.80;74.30;;;;;;5099462;28;20461;-58
2021/01/11 00:23:56;;;;;;;10.70;5.37;;;11.70;73.90;;;;;;5097132;28;20455;-50
2021/01/11 00:26:22;;;;;;;8.20;5.00;;;11.60;73.90;;;;;;5109922;28;20472;-57
2021/01/11 00:28:49;;;;;;;14.77;6.30;;;11.50;73.70;;;;;;5097975;28;20464;-51
2021/01/11 00:31:24;;;;;;;7.50;5.20;;;11.50;73.70;;;;;;5094296;28;20444;-57
2021/01/11 00:33:51;;;;;;;7.57;5.40;;;11.40;73.80;;;;;;5093244;28;20444;-55
2021/01/11 00:36:19;;;;;;;9.70;5.73;;;11.30;73.70;;;;;;5093283;28;20482;-57
2021/01/11 00:38:46;;;;;;;9.43;5.50;;;11.30;73.50;;;;;;5084239;28;20532;-54
2021/01/11 00:41:17;;;;;;;7.00;4.70;;;11.40;73.20;;;;;;5086156;28;20425;-53
2021/01/11 00:43:44;;;;;;;11.43;5.10;;;11.40;73.10;;;;;;5093406;28;20460;-53
2021/01/11 00:46:11;;;;;;;12.97;5.43;;;11.40;72.90;;;;;;5092710;28;20444;-56
2021/01/11 00:48:38;;;;;;;9.33;4.73;;;11.40;72.80;;;;;;5091467;28;20453;-53
2021/01/11 00:51:07;;;;;;;9.93;5.13;;;11.40;72.50;;;;;;5092779;28;20501;-54
2021/01/11 00:53:36;;;;;;;7.57;5.00;;;11.50;72.30;;;;;;5092951;28;20448;-50
2021/01/11 00:56:03;;;;;;;12.80;5.53;;;11.50;72.30;;;;;;5098238;28;20527;-52
2021/01/11 00:58:30;;;;;;;8.07;4.90;;;11.30;72.40;;;;;;5113212;28;20485;-51
2021/01/11 01:00:57;;;;;;;9.50;5.07;;;11.40;72.50;;;;;;5113191;28;20451;-51
2021/01/11 01:03:24;;;;;;;7.20;5.20;;;11.40;72.30;;;;;;5115723;28;20443;-48
2021/01/11 01:05:50;;;;;;;11.20;5.10;;;11.30;72.40;;;;;;5117278;28;20475;-49
2021/01/11 01:08:18;;;;;;;8.83;5.10;;;11.40;72.10;;;;;;5097867;28;20468;-49
2021/01/11 01:10:46;;;;;;;6.03;4.80;;;11.40;72.10;;;;;;5101296;28;20464;-54
2021/01/11 01:13:13;;;;;;;7.17;4.67;;;11.40;72.10;;;;;;5115184;28;20532;-54
2021/01/11 01:15:41;;;;;;;13.20;5.30;;;11.40;71.80;;;;;;5076460;28;20494;-52
2021/01/11 01:18:08;;;;;;;7.57;4.70;;;11.30;71.90;;;;;;5076944;28;20441;-48
2021/01/11 01:20:35;;;;;;;9.40;5.20;;;11.50;71.70;;;;;;5076510;28;20467;-51
2021/01/11 01:23:02;;;;;;;7.30;5.17;;;11.40;71.70;;;;;;5076633;28;20434;-52
2021/01/11 01:25:29;;;;;;;6.70;4.70;;;11.40;71.80;;;;;;5076089;28;20507;-50
2021/01/11 01:27:57;;;;;;;13.27;4.50;;;11.40;71.90;;;;;;5080981;28;20501;-50
2021/01/11 01:30:24;;;;;;;12.50;5.10;;;11.40;71.60;;;;;;5096731;28;20489;-50
2021/01/11 01:32:51;;;;;;;7.03;4.63;;;11.40;71.70;;;;;;5079535;28;20477;-51
2021/01/11 01:35:18;;;;;;;6.73;4.80;;;11.40;71.70;;;;;;5089910;28;20447;-55
2021/01/11 01:37:46;;;;;;;9.33;5.03;;;11.40;71.50;;;;;;5096397;28;20452;-50
2021/01/11 01:40:13;;;;;;;11.10;5.00;;;11.40;71.50;;;;;;5092442;28;20495;-50
2021/01/11 01:42:40;;;;;;;9.33;4.97;;;11.40;71.20;;;;;;5075976;28;20434;-52
2021/01/11 01:45:09;;;;;;;6.30;4.47;;;11.40;71.40;;;;;;5076327;28;20506;-53
2021/01/11 01:47:36;;;;;;;6.47;4.60;;;11.40;71.20;;;;;;5076061;28;20503;-52
2021/01/11 01:50:04;;;;;;;7.43;4.23;;;11.40;71.30;;;;;;5089710;28;20470;-51
2021/01/11 01:52:31;;;;;;;9.37;4.80;;;11.30;71.40;;;;;;5095570;28;20530;-52
2021/01/11 01:54:59;;;;;;;8.43;5.03;;;11.40;71.40;;;;;;5096205;28;20487;-46
2021/01/11 01:57:26;;;;;;;10.43;5.73;;;11.40;71.20;;;;;;5096498;28;20482;-48
2021/01/11 01:59:53;;;;;;;14.80;5.13;;;11.40;71.20;;;;;;5076118;28;20441;-46
2021/01/11 02:02:21;;;;;;;5.90;5.10;;;11.40;71.20;;;;;;5075990;28;20429;-48
2021/01/11 02:04:48;;;;;;;8.27;5.53;;;11.40;71.30;;;;;;5075593;28;20444;-48
2021/01/11 02:07:23;;;;;;;12.03;5.40;;;11.30;71.20;;;;;;5089829;28;20457;-53
2021/01/11 02:09:55;;;;;;;9.00;5.80;;;11.40;71.10;;;;;;5095152;28;20476;-51
2021/01/11 02:12:25;;;;;;;8.77;4.97;;;11.40;71.00;;;;;;5094400;28;20468;-52
2021/01/11 02:15:00;;;;;;;10.43;5.90;;;11.40;71.00;;;;;;5089338;28;20440;-52
2021/01/11 02:17:31;;;;;;;10.70;6.30;;;11.40;71.10;;;;;;5092131;28;20444;-49
2021/01/11 02:20:37;;;;;;;7.80;5.10;;;11.40;71.50;;;;;;5094842;28;20449;-51
2021/01/11 02:23:16;;;;;;;11.93;5.90;;;11.30;70.90;;;;;;5089713;28;20529;-52
2021/01/11 02:25:43;;;;;;;11.63;5.93;;;11.30;70.80;;;;;;5095067;28;20502;-53
2021/01/11 02:28:35;;;;;;;12.20;6.90;;;11.30;70.70;;;;;;5089705;28;20500;-52
2021/01/11 02:31:03;;;;;;;11.50;6.60;;;11.40;70.70;;;;;;5094119;28;20433;-49
2021/01/11 02:33:30;;;;;;;11.33;7.10;;;11.30;70.40;;;;;;5100665;28;20554;-50
2021/01/11 02:36:00;;;;;;;15.60;7.87;;;11.30;70.50;;;;;;5094187;28;20482;-48
2021/01/11 02:38:27;;;;;;;12.00;7.07;;;11.30;70.40;;;;;;5090568;28;20445;-48
2021/01/11 02:40:54;;;;;;;14.07;7.10;;;11.30;70.50;;;;;;5093895;28;20474;-49
2021/01/11 02:43:21;;;;;;;12.63;7.10;;;11.40;70.40;;;;;;5093676;28;20433;-50
2021/01/11 02:45:48;;;;;;;11.40;7.40;;;11.40;70.20;;;;;;5094501;28;20496;-50
2021/01/11 02:48:20;;;;;;;13.33;7.00;;;11.30;70.20;;;;;;5094382;28;20469;-50
2021/01/11 02:50:52;;;;;;;12.10;7.40;;;11.40;70.20;;;;;;5093113;28;20453;-51
2021/01/11 02:53:27;;;;;;;11.83;6.83;;;11.40;69.90;;;;;;5093535;28;20522;-48
2021/01/11 02:55:56;;;;;;;11.27;6.97;;;11.40;70.00;;;;;;5095221;28;20444;-52
2021/01/11 02:58:32;;;;;;;13.80;7.50;;;11.40;70.00;;;;;;5095580;28;20441;-51
2021/01/11 03:00:59;;;;;;;12.97;7.47;;;11.40;70.10;;;;;;5081729;28;20437;-50
2021/01/11 03:03:27;;;;;;;11.77;6.97;;;11.40;70.10;;;;;;5074380;28;20441;-53
2021/01/11 03:05:54;;;;;;;12.00;7.43;;;11.40;70.00;;;;;;5074848;28;20445;-49
2021/01/11 03:08:22;;;;;;;10.37;6.93;;;11.40;70.00;;;;;;5077882;28;20465;-49
2021/01/11 03:10:51;;;;;;;8.93;6.57;;;11.40;70.10;;;;;;5115542;28;20497;-48
2021/01/11 03:13:18;;;;;;;13.60;7.33;;;11.30;70.20;;;;;;5114989;27;20467;-50
2021/01/11 03:15:45;;;;;;;9.90;6.60;;;11.40;70.10;;;;;;5115386;28;20444;-53
2021/01/11 03:18:12;;;;;;;9.37;6.93;;;11.40;70.00;;;;;;5114851;28;20436;-50
2021/01/11 03:20:40;;;;;;;11.70;6.93;;;11.40;70.10;;;;;;5115246;27;20444;-52
2021/01/11 03:23:07;;;;;;;12.67;6.90;;;11.40;70.00;;;;;;5114578;28;20448;-50
2021/01/11 03:25:34;;;;;;;13.03;7.47;;;11.40;69.80;;;;;;5114507;27;20432;-49
2021/01/11 03:28:03;;;;;;;9.20;6.37;;;11.40;69.80;;;;;;5115021;27;20486;-53
2021/01/11 03:30:29;;;;;;;11.13;7.00;;;11.40;69.90;;;;;;5115269;27;20428;-53
2021/01/11 03:32:57;;;;;;;10.80;7.50;;;11.40;69.90;;;;;;5114537;28;20529;-53
2021/01/11 03:35:24;;;;;;;10.60;6.93;;;11.30;69.90;;;;;;5114270;28;20440;-48
2021/01/11 03:37:52;;;;;;;14.63;7.33;;;11.30;69.80;;;;;;5114684;28;20435;-52
2021/01/11 03:40:19;;;;;;;11.83;7.00;;;11.40;69.70;;;;;;5115198;28;20496;-49
2021/01/11 03:42:46;;;;;;;13.70;8.07;;;11.40;69.80;;;;;;5114924;27;20444;-49
2021/01/11 03:45:13;;;;;;;11.20;7.43;;;11.30;69.90;;;;;;5082680;28;20449;-51
2021/01/11 03:47:40;;;;;;;12.17;7.33;;;11.30;70.00;;;;;;5074262;28;20469;-49
2021/01/11 03:50:08;;;;;;;12.37;7.50;;;11.30;69.80;;;;;;5074474;28;20523;-52
2021/01/11 03:52:39;;;;;;;13.37;8.00;;;11.40;69.80;;;;;;5073893;28;20539;-51
2021/01/11 03:55:08;;;;;;;13.20;7.73;;;11.40;69.60;;;;;;5074111;28;20478;-51
2021/01/11 03:57:34;;;;;;;13.90;7.47;;;11.40;69.70;;;;;;5073806;28;20488;-53
2021/01/11 04:00:01;;;;;;;10.67;7.40;;;11.30;69.70;;;;;;5073409;28;20512;-51
2021/01/11 04:02:28;;;;;;;12.43;7.83;;;11.30;69.70;;;;;;5074038;28;20468;-50
2021/01/11 04:04:55;;;;;;;13.43;7.50;;;11.40;69.90;;;;;;5073753;28;20529;-49
2021/01/11 04:07:22;;;;;;;12.03;7.70;;;11.30;69.70;;;;;;5073828;28;20437;-49
2021/01/11 04:09:49;;;;;;;11.70;7.40;;;11.30;69.70;;;;;;5073982;28;20469;-52
2021/01/11 04:12:17;;;;;;;13.10;7.60;;;11.30;69.70;;;;;;5109010;28;20463;-52
2021/01/11 04:14:44;;;;;;;11.10;7.10;;;11.30;70.40;;;;;;5114529;28;20460;-52
2021/01/11 04:17:11;;;;;;;12.20;6.93;;;11.30;69.70;;;;;;5113871;28;20502;-52
2021/01/11 04:19:38;;;;;;;10.80;7.30;;;11.30;69.70;;;;;;5104060;28;20465;-53
2021/01/11 04:22:05;;;;;;;16.17;7.60;;;11.30;69.50;;;;;;5073491;28;20429;-50
2021/01/11 04:24:32;;;;;;;12.60;7.70;;;11.30;69.50;;;;;;5073457;28;20441;-51
2021/01/11 04:26:59;;;;;;;13.23;8.10;;;11.30;69.60;;;;;;5073594;28;20437;-54
2021/01/11 04:29:27;;;;;;;14.50;7.87;;;11.30;69.60;;;;;;5100075;28;20512;-48
2021/01/11 04:31:54;;;;;;;12.20;7.87;;;11.30;69.50;;;;;;5113229;28;20543;-50
2021/01/11 04:34:21;;;;;;;10.63;7.53;;;11.20;69.60;;;;;;5114470;28;20519;-46
2021/01/11 04:36:48;;;;;;;11.50;6.63;;;11.30;69.50;;;;;;5112129;28;20471;-50
2021/01/11 04:39:15;;;;;;;10.30;7.00;;;11.20;69.60;;;;;;5073816;28;20449;-51
2021/01/11 04:41:42;;;;;;;11.13;7.60;;;11.20;69.70;;;;;;5073020;28;20473;-50
2021/01/11 04:44:09;;;;;;;12.00;7.70;;;11.30;69.50;;;;;;5073174;28;20492;-51
2021/01/11 04:46:36;;;;;;;11.00;7.13;;;11.20;69.60;;;;;;5074115;28;20438;-53
2021/01/11 04:49:05;;;;;;;10.00;6.87;;;11.20;69.60;;;;;;5073416;28;20438;-52
2021/01/11 04:51:32;;;;;;;10.40;6.90;;;11.10;69.70;;;;;;5072928;28;20476;-53
2021/01/11 04:53:59;;;;;;;10.63;7.20;;;11.10;69.90;;;;;;5073172;28;20607;-51
2021/01/11 04:56:26;;;;;;;10.50;6.80;;;11.10;69.70;;;;;;5073875;28;20441;-50
2021/01/11 04:58:54;;;;;;;11.27;6.97;;;11.20;69.60;;;;;;5073711;28;20454;-50
2021/01/11 05:01:22;;;;;;;8.30;5.87;;;11.20;69.60;;;;;;5073269;28;20579;-52
2021/01/11 05:03:51;;;;;;;11.17;7.50;;;11.20;69.60;;;;;;5073604;28;20434;-49
2021/01/11 05:06:18;;;;;;;10.70;6.93;;;11.20;69.70;;;;;;5073344;28;20481;-48
2021/01/11 05:08:45;;;;;;;9.93;7.07;;;11.20;69.60;;;;;;5073288;28;20461;-53
2021/01/11 05:11:12;;;;;;;8.77;6.50;;;11.20;69.50;;;;;;5072531;28;20488;-51
2021/01/11 05:13:39;;;;;;;10.30;6.80;;;11.20;69.40;;;;;;5073140;28;20576;-48
2021/01/11 05:16:12;;;;;;;9.80;6.33;;;11.20;69.30;;;;;;5071871;28;20445;-50
2021/01/11 05:18:40;;;;;;;10.20;6.43;;;11.20;69.30;;;;;;5072412;28;20509;-50
2021/01/11 05:21:07;;;;;;;8.20;5.73;;;11.20;69.20;;;;;;5085251;28;20452;-47
2021/01/11 05:23:36;;;;;;;9.30;6.30;;;11.20;69.20;;;;;;5092987;28;20437;-48
2021/01/11 05:26:13;;;;;;;9.30;6.50;;;11.20;69.30;;;;;;5093110;28;20433;-48
2021/01/11 05:28:40;;;;;;;8.53;6.00;;;11.20;69.20;;;;;;5093209;28;20493;-50
2021/01/11 05:31:07;;;;;;;8.10;5.93;;;11.20;69.30;;;;;;5081957;28;20485;-49
2021/01/11 05:33:34;;;;;;;9.20;6.40;;;11.20;69.30;;;;;;5072617;28;20560;-52
2021/01/11 05:36:03;;;;;;;7.50;5.73;;;11.20;69.30;;;;;;5072871;28;20476;-51
2021/01/11 05:38:43;;;;;;;8.67;6.00;;;11.20;69.30;;;;;;5073429;28;20513;-52
2021/01/11 05:41:13;;;;;;;7.13;5.50;;;11.20;69.30;;;;;;5072179;28;20433;-48
2021/01/11 05:43:40;;;;;;;7.03;5.43;;;11.20;69.20;;;;;;5072836;28;20429;-48
2021/01/11 05:46:24;;;;;;;8.23;6.50;;;11.20;69.20;;;;;;5072787;28;20470;-50
2021/01/11 05:48:58;;;;;;;7.60;5.63;;;11.10;69.20;;;;;;5074554;28;20441;-53
2021/01/11 05:51:25;;;;;;;7.93;5.40;;;11.10;69.40;;;;;;5076061;28;20449;-52
2021/01/11 05:53:53;;;;;;;7.67;5.90;;;11.10;69.30;;;;;;5076572;28;20469;-51
2021/01/11 05:56:20;;;;;;;8.80;5.10;;;11.10;69.50;;;;;;5076228;28;20506;-49
2021/01/11 05:59:06;;;;;;;7.50;5.67;;;11.20;69.30;;;;;;5076495;28;20434;-50
2021/01/11 06:01:33;;;;;;;7.13;5.90;;;11.10;69.30;;;;;;5075836;28;20418;-53
2021/01/11 06:04:04;;;;;;;8.87;6.20;;;11.10;69.60;;;;;;5076072;28;20438;-51
2021/01/11 06:06:31;;;;;;;8.07;5.30;;;11.10;69.50;;;;;;5076688;28;20464;-50
2021/01/11 06:08:58;;;;;;;7.70;5.43;;;11.10;69.50;;;;;;5076239;28;20460;-51
2021/01/11 06:11:26;;;;;;;8.53;5.17;;;11.10;69.50;;;;;;5075526;28;20438;-51
2021/01/11 06:13:53;;;;;;;6.30;5.17;;;11.10;69.30;;;;;;5076003;28;20501;-50
2021/01/11 06:16:22;;;;;;;5.60;5.00;;;11.10;69.40;;;;;;5095750;28;20522;-53
2021/01/11 06:18:49;;;;;;;5.47;4.97;;;11.10;69.40;;;;;;5096271;28;20445;-52
2021/01/11 06:21:17;;;;;;;7.33;5.60;;;11.10;69.30;;;;;;5095931;28;20490;-51
2021/01/11 06:23:44;;;;;;;8.43;5.97;;;11.10;69.20;;;;;;5096163;28;20495;-52
2021/01/11 06:26:29;;;;;;;7.70;6.07;;;11.10;69.20;;;;;;5095848;28;20475;-53
2021/01/11 06:28:57;;;;;;;7.43;5.00;;;11.20;69.20;;;;;;5096016;28;20429;-51
2021/01/11 06:31:28;;;;;;;6.50;5.20;;;11.20;69.20;;;;;;5095317;28;20458;-51
2021/01/11 06:33:56;;;;;;;5.13;4.63;;;11.20;69.00;;;;;;5077767;28;20477;-49
2021/01/11 06:36:24;;;;;;;5.57;4.77;;;11.20;69.20;;;;;;5075571;28;20476;-53
2021/01/11 06:38:52;;;;;;;6.43;5.63;;;11.10;69.10;;;;;;5075385;28;20537;-50
2021/01/11 06:41:19;;;;;;;6.40;5.20;;;11.10;69.00;;;;;;5075501;28;20472;-50
2021/01/11 06:43:48;;;;;;;5.77;5.17;;;11.10;69.20;;;;;;5075420;28;20429;-49
2021/01/11 06:46:44;;;;;;;6.37;4.90;;;11.10;69.30;;;;;;5075313;28;20442;-50
2021/01/11 06:49:23;;;;;;;8.50;5.83;;;11.10;69.30;;;;;;5075671;28;20521;-51
2021/01/11 06:52:02;;;;;;;6.47;5.43;;;11.10;69.20;;;;;;5075468;28;20532;-51
2021/01/11 06:54:41;;;;;;;7.80;5.57;;;11.10;69.20;;;;;;5075657;28;20504;-50
2021/01/11 06:57:09;;;;;;;6.47;5.57;;;11.10;69.30;;;;;;5075177;28;20468;-50
2021/01/11 06:59:38;;;;;;;8.63;5.90;;;11.10;69.30;;;;;;5085916;28;20510;-51
2021/01/11 07:02:24;;;;;;;6.57;5.00;;;11.10;69.20;;;;;;5094898;28;20483;-53
2021/01/11 07:04:51;;;;;;;7.73;5.87;;;11.10;69.30;;;;;;5095250;28;20441;-54
2021/01/11 07:07:19;;;;;;;7.23;5.40;;;11.10;69.20;;;;;;5094241;28;20494;-53
2021/01/11 07:09:50;;;;;;;9.10;6.20;;;11.20;69.10;;;;;;5074758;28;20465;-53
2021/01/11 07:12:18;;;;;;;8.73;5.90;;;11.10;69.20;;;;;;5074089;28;20437;-52
2021/01/11 07:15:03;;;;;;;8.13;6.00;;;11.10;69.30;;;;;;5074808;28;20450;-48
2021/01/11 07:17:37;;;;;;;9.07;5.60;;;11.10;70.00;;;;;;5073713;28;20475;-50
2021/01/11 07:20:06;;;;;;;8.97;5.90;;;11.10;69.20;;;;;;5074924;28;20437;-50
2021/01/11 07:22:33;;;;;;;7.50;5.80;;;11.10;69.20;;;;;;5074107;28;20430;-51
2021/01/11 07:25:05;;;;;;;7.80;5.63;;;11.10;69.20;;;;;;5076938;28;20468;-47
2021/01/11 07:27:32;;;;;;;7.73;5.57;;;11.10;69.00;;;;;;5115223;28;20482;-46
2021/01/11 07:29:59;;;;;;;7.93;6.10;;;11.10;69.20;;;;;;5115599;28;20436;-50
2021/01/11 07:32:31;;;;;;;7.90;6.10;;;11.10;69.20;;;;;;5114381;28;20436;-50
2021/01/11 07:35:00;;;;;;;9.73;6.20;;;11.10;69.00;;;;;;5093946;28;20437;-47
2021/01/11 07:37:27;;;;;;;8.57;6.27;;;11.10;69.10;;;;;;5074510;28;20531;-49
2021/01/11 07:39:54;;;;;;;9.37;6.20;;;11.10;69.00;;;;;;5074461;28;20533;-51
2021/01/11 07:42:21;;;;;;;8.27;5.77;;;11.10;69.00;;;;;;5074065;28;20442;-48
2021/01/11 07:44:48;;;;;;;8.70;6.43;;;11.10;69.00;;;;;;5074379;28;20515;-48
2021/01/11 07:47:15;;;;;;;8.30;6.37;;;11.10;69.10;;;;;;5074109;28;20464;-50
2021/01/11 07:49:44;;;;;;;9.83;6.70;;;11.10;69.20;;;;;;5073880;28;20503;-49
2021/01/11 07:52:11;;;;;;;8.67;6.10;;;11.10;69.00;;;;;;5073865;28;20522;-46
2021/01/11 07:54:39;;;;;;;8.37;6.80;;;11.10;68.80;;;;;;5073701;28;20534;-49
2021/01/11 07:57:08;;;;;;;10.43;6.97;;;11.10;68.90;;;;;;5073710;28;20491;-50
2021/01/11 07:59:35;;;;;;;9.30;6.20;;;11.10;69.00;;;;;;5074181;28;20477;-50
2021/01/11 08:02:03;;;;;;;8.40;6.57;;;11.10;68.90;;;;;;5084865;28;20468;-49
2021/01/11 08:04:35;;;;;;;8.50;6.13;;;11.10;68.90;;;;;;5094360;28;20441;-49
2021/01/11 08:07:05;;;;;;;10.13;6.97;;;11.00;69.00;;;;;;5094031;28;20493;-51
2021/01/11 08:09:32;;;;;;;12.13;7.17;;;11.00;69.10;;;;;;5097152;28;20456;-51
2021/01/11 08:12:06;;;;;;;10.50;7.03;;;11.00;69.20;;;;;;5113410;28;20439;-50
2021/01/11 08:14:33;;;;;;;14.87;7.33;;;11.00;69.10;;;;;;5114454;28;20467;-49
2021/01/11 08:17:00;;;;;;;10.33;6.63;;;11.00;69.10;;;;;;5114188;28;20424;-50
2021/01/11 08:19:27;;;;;;;10.60;6.87;;;11.10;69.00;;;;;;5113639;28;20447;-45
2021/01/11 08:21:57;;;;;;;10.97;6.80;;;11.00;69.00;;;;;;5113772;28;20431;-48
2021/01/11 08:24:25;;;;;;;9.67;6.83;;;10.90;69.20;;;;;;5114460;28;20527;-47
2021/01/11 08:27:01;;;;;;;11.60;6.70;;;11.00;69.10;;;;;;5113620;28;20475;-48
2021/01/11 08:29:30;;;;;;;14.23;6.80;;;11.10;69.00;;;;;;5094250;28;20509;-48
2021/01/11 08:31:59;;;;;;;13.73;7.13;;;11.00;69.00;;;;;;5093159;28;20445;-50
2021/01/11 08:34:26;;;;;;;10.10;6.90;;;11.10;69.50;;;;;;5093881;28;20483;-50
2021/01/11 08:36:53;;;;;;;12.20;7.23;;;11.10;68.90;;;;;;5083985;28;20449;-47
2021/01/11 08:39:20;;;;;;;9.30;6.40;;;11.00;69.00;;;;;;5073553;28;20471;-49
2021/01/11 08:41:49;;;;;;;12.77;7.00;;;11.10;68.90;;;;;;5072790;28;20438;-52
2021/01/11 08:44:29;;;;;;;15.83;7.77;;;11.10;68.60;;;;;;5073334;28;20487;-50
2021/01/11 08:47:01;;;;;;;12.33;7.50;;;11.10;69.30;;;;;;5073594;28;20442;-48
2021/01/11 08:49:29;;;;;;;10.53;6.50;;;11.10;68.60;;;;;;5073646;28;20442;-47
2021/01/11 08:52:06;;;;;;;10.80;7.10;;;11.10;68.50;;;;;;5072793;28;20449;-49
2021/01/11 08:54:33;;;;;;;11.83;7.00;;;11.10;68.60;;;;;;5093398;28;20471;-48
2021/01/11 08:57:09;;;;;;;9.70;6.47;;;11.10;68.60;;;;;;5114033;28;20435;-52
2021/01/11 08:59:36;;;;;;;10.33;6.60;;;11.00;68.60;;;;;;5114175;27;20568;-49
2021/01/11 09:02:03;;;;;;;10.87;7.17;;;11.00;68.60;;;;;;5101780;28;20479;-51
2021/01/11 09:04:31;;;;;;;10.97;6.90;;;11.00;68.60;;;;;;5112134;28;20442;-50
2021/01/11 09:07:01;;;;;;;9.80;6.70;;;11.10;68.50;;;;;;5113783;28;20470;-50
2021/01/11 09:09:30;;;;;;;12.20;7.60;;;11.10;69.10;;;;;;5113752;28;20436;-49
2021/01/11 09:12:04;;;;;;;10.47;7.00;;;11.10;68.50;;;;;;5112044;28;20467;-49
2021/01/11 09:14:31;;;;;;;9.93;7.10;;;11.10;68.50;;;;;;5112797;28;20470;-49
2021/01/11 09:17:01;;;;;;;10.67;7.53;;;11.00;68.50;;;;;;5113625;28;20489;-50
2021/01/11 09:19:29;;;;;;;14.17;7.80;;;11.00;68.40;;;;;;5113321;28;20443;-50
2021/01/11 09:22:01;;;;;;;10.93;7.00;;;11.00;68.30;;;;;;5093236;28;20451;-49
2021/01/11 09:24:28;;;;;;;11.37;7.47;;;11.00;68.30;;;;;;5095606;28;20478;-48
2021/01/11 09:26:55;;;;;;;11.43;7.80;;;11.00;68.20;;;;;;5096608;28;20429;-48
2021/01/11 09:29:24;;;;;;;13.00;7.30;;;11.00;68.30;;;;;;5101505;28;20463;-49
2021/01/11 09:31:50;;;;;;;11.40;7.30;;;11.10;68.20;;;;;;5116603;27;20482;-47
2021/01/11 09:34:18;;;;;;;11.13;7.10;;;11.10;68.00;;;;;;5117419;27;20493;-50
2021/01/11 09:36:45;;;;;;;9.07;6.80;;;11.10;68.20;;;;;;5117406;28;20548;-47
2021/01/11 09:39:12;;;;;;;12.63;8.13;;;11.10;68.10;;;;;;5116633;28;20524;-46
2021/01/11 09:41:45;;;;;;;12.90;7.40;;;11.00;68.10;;;;;;5116804;28;20432;-47
2021/01/11 09:44:11;;;;;;;12.40;7.13;;;11.00;68.20;;;;;;5116970;28;20497;-48
2021/01/11 09:46:44;;;;;;;9.13;6.63;;;11.00;68.10;;;;;;5115214;28;20443;-50
2021/01/11 09:49:11;;;;;;;9.47;6.67;;;11.00;68.20;;;;;;5076523;28;20483;-46
2021/01/11 09:51:38;;;;;;;12.77;7.37;;;11.00;68.40;;;;;;5076389;28;20500;-47
2021/01/11 09:54:05;;;;;;;11.23;6.80;;;11.00;68.40;;;;;;5076359;28;20491;-47
2021/01/11 09:56:32;;;;;;;11.00;7.47;;;11.00;68.40;;;;;;5095872;28;20469;-47
2021/01/11 09:59:00;;;;;;;10.90;7.40;;;11.00;68.40;;;;;;5116940;28;20459;-46
2021/01/11 10:01:43;;;;;;;13.13;7.47;;;11.00;68.10;;;;;;5109554;28;20429;-48
2021/01/11 10:04:11;;;;;;;12.03;7.50;;;11.00;68.00;;;;;;5094364;28;20509;-49
2021/01/11 10:06:39;;;;;;;12.07;7.50;;;11.00;68.00;;;;;;5096072;28;20528;-47
2021/01/11 10:09:06;;;;;;;10.00;6.80;;;11.00;68.10;;;;;;5096210;28;20437;-48
2021/01/11 10:11:33;;;;;;;11.63;6.53;;;11.00;68.00;;;;;;5095690;28;20432;-47
2021/01/11 10:14:00;;;;;;;10.13;6.83;;;11.00;68.10;;;;;;5088374;28;20530;-47
2021/01/11 10:16:27;;;;;;;12.37;6.90;;;11.00;68.10;;;;;;5076144;28;20531;-47
2021/01/11 10:18:55;;;;;;;10.43;6.87;;;11.00;68.20;;;;;;5075896;28;20440;-49
2021/01/11 10:21:22;;;;;;;11.20;6.40;;;11.00;68.10;;;;;;5075713;28;20437;-51
2021/01/11 10:23:49;;;;;;;15.73;7.90;;;11.00;68.20;;;;;;5076103;28;20430;-47
2021/01/11 10:26:17;;;;;;;9.87;6.80;;;11.00;68.20;;;;;;5075780;28;20530;-49
2021/01/11 10:28:44;;;;;;;9.63;6.80;;;11.00;68.30;;;;;;5075990;28;20437;-46
2021/01/11 10:31:11;;;;;;;11.43;7.20;;;11.00;68.10;;;;;;5075624;28;20502;-46
2021/01/11 10:33:38;;;;;;;9.83;7.23;;;11.00;68.10;;;;;;5075195;28;20501;-46
2021/01/11 10:36:06;;;;;;;10.53;7.70;;;11.00;68.30;;;;;;5075368;28;20441;-45
2021/01/11 10:38:33;;;;;;;12.70;7.70;;;11.00;68.20;;;;;;5075629;28;20477;-48
2021/01/11 10:41:00;;;;;;;12.37;7.50;;;11.00;68.20;;;;;;5075829;28;20445;-48
2021/01/11 10:43:27;;;;;;;11.43;7.63;;;11.00;67.80;;;;;;5075007;28;20472;-50
2021/01/11 10:45:54;;;;;;;14.03;7.70;;;11.00;68.00;;;;;;5075125;28;20446;-49
2021/01/11 10:48:21;;;;;;;14.20;8.50;;;11.00;68.00;;;;;;5075577;28;20476;-47
2021/01/11 10:50:48;;;;;;;10.87;7.37;;;11.00;67.90;;;;;;5075071;28;20477;-51
2021/01/11 10:53:16;;;;;;;9.77;6.80;;;11.00;67.80;;;;;;5074710;28;20473;-48
2021/01/11 10:55:43;;;;;;;10.83;7.47;;;11.00;68.00;;;;;;5075106;28;20506;-49
2021/01/11 10:58:10;;;;;;;14.30;7.73;;;11.10;67.90;;;;;;5075610;28;20462;-53
2021/01/11 11:00:37;;;;;;;11.00;7.37;;;11.00;67.80;;;;;;5074798;28;20438;-48
2021/01/11 11:03:06;;;;;;;14.43;8.20;;;11.00;68.00;;;;;;5094574;28;20437;-50
2021/01/11 11:05:33;;;;;;;16.10;7.47;;;11.00;67.90;;;;;;5095090;28;20474;-47
2021/01/11 11:08:00;;;;;;;11.13;7.33;;;11.00;68.10;;;;;;5080514;28;20443;-51
2021/01/11 11:10:27;;;;;;;11.07;7.13;;;11.00;68.10;;;;;;5075055;28;20449;-52
2021/01/11 11:12:55;;;;;;;12.03;7.40;;;11.00;67.90;;;;;;5074356;28;20511;-49
2021/01/11 11:15:22;;;;;;;13.27;7.90;;;11.00;68.00;;;;;;5077864;28;20437;-48
2021/01/11 11:17:50;;;;;;;12.67;7.20;;;11.00;67.90;;;;;;5094852;28;20425;-53
2021/01/11 11:20:18;;;;;;;11.73;7.50;;;11.00;67.70;;;;;;5094748;28;20451;-49
2021/01/11 11:22:45;;;;;;;12.37;8.30;;;11.10;67.40;;;;;;5094493;28;20486;-50
2021/01/11 11:25:13;;;;;;;14.00;8.27;;;11.10;67.30;;;;;;5083804;28;20457;-51
2021/01/11 11:27:41;;;;;;;12.27;8.20;;;11.00;67.60;;;;;;5074429;28;20441;-53
2021/01/11 11:30:09;;;;;;;11.40;7.30;;;11.00;67.80;;;;;;5074346;28;20507;-50
2021/01/11 11:32:36;;;;;;;16.23;8.43;;;11.00;67.70;;;;;;5073561;28;20433;-50
2021/01/11 11:35:05;;;;;;;13.20;8.60;;;10.90;68.00;;;;;;5074593;28;20525;-52
2021/01/11 11:37:33;;;;;;;12.40;8.33;;;11.00;68.00;;;;;;5074527;28;20442;-52
2021/01/11 11:40:00;;;;;;;11.77;7.70;;;10.90;68.00;;;;;;5074362;28;20450;-50
2021/01/11 11:42:33;;;;;;;12.83;8.03;;;10.90;67.80;;;;;;5074103;28;20449;-49
2021/01/11 11:45:01;;;;;;;12.30;7.20;;;11.00;68.00;;;;;;5074073;28;20469;-48
2021/01/11 11:47:32;;;;;;;11.97;7.47;;;11.00;67.90;;;;;;5073723;28;20449;-50
2021/01/11 11:50:01;;;;;;;10.93;7.30;;;10.90;68.00;;;;;;5074429;28;20464;-52
2021/01/11 11:52:28;;;;;;;11.57;7.97;;;10.90;68.00;;;;;;5074118;28;20456;-48
2021/01/11 11:54:59;;;;;;;10.13;7.23;;;11.00;67.90;;;;;;5073616;28;20474;-50
2021/01/11 11:57:26;;;;;;;11.30;7.13;;;11.00;67.80;;;;;;5073947;28;20528;-49
2021/01/11 11:59:53;;;;;;;12.57;7.70;;;11.00;67.80;;;;;;5074666;28;20449;-49
2021/01/11 12:02:21;;;;;;;9.93;7.80;;;11.00;67.80;;;;;;5087315;28;20517;-49
2021/01/11 12:04:48;;;;;;;11.47;7.90;;;11.00;67.70;;;;;;5093966;28;20433;-51
2021/01/11 12:07:15;;;;;;;10.30;7.30;;;11.00;67.90;;;;;;5092738;28;20449;-53
2021/01/11 12:09:42;;;;;;;11.33;8.40;;;11.00;67.90;;;;;;5106624;28;20444;-50
2021/01/11 12:12:09;;;;;;;13.07;8.03;;;11.00;68.00;;;;;;5093786;28;20437;-51
2021/01/11 12:14:36;;;;;;;10.47;7.20;;;11.00;67.80;;;;;;5094038;28;20464;-49
2021/01/11 12:17:04;;;;;;;12.07;8.57;;;11.00;67.80;;;;;;5093951;28;20476;-51
2021/01/11 12:19:32;;;;;;;10.27;7.40;;;11.00;67.80;;;;;;5073957;28;20446;-50
2021/01/11 12:21:59;;;;;;;11.47;7.93;;;11.00;67.70;;;;;;5073748;28;20518;-52
2021/01/11 12:24:26;;;;;;;11.90;7.00;;;11.10;67.70;;;;;;5086147;28;20428;-49
2021/01/11 12:26:54;;;;;;;9.53;7.30;;;11.00;67.80;;;;;;5084853;28;20452;-51
2021/01/11 12:29:21;;;;;;;13.53;8.43;;;11.10;67.70;;;;;;5073850;28;20426;-48
2021/01/11 12:31:49;;;;;;;11.90;7.77;;;11.00;67.70;;;;;;5073411;28;20425;-50
2021/01/11 12:34:16;;;;;;;11.37;7.87;;;11.00;67.70;;;;;;5073884;28;20469;-49
2021/01/11 12:36:44;;;;;;;10.67;7.40;;;11.10;67.70;;;;;;5074181;28;20441;-54
2021/01/11 12:39:11;;;;;;;15.20;8.70;;;11.00;67.70;;;;;;5073643;28;20500;-48
2021/01/11 12:41:38;;;;;;;11.20;8.00;;;11.00;67.90;;;;;;5091381;28;20469;-49
2021/01/11 12:44:05;;;;;;;10.73;8.00;;;11.00;67.80;;;;;;5089053;28;20468;-52
2021/01/11 12:46:32;;;;;;;10.90;8.10;;;11.00;67.90;;;;;;5073774;28;20491;-51
2021/01/11 12:48:59;;;;;;;11.37;8.13;;;11.00;67.90;;;;;;5073417;28;20438;-48